sensor_id;sensor_type;location;lat;lon;timestamp;P1;durP1;ratioP1;P2;durP2;ratioP2
31660;SDS011;18267;52.234;7.444;2022-07-03T00:01:38;1.33;;;1.23;;
31660;SDS011;18267;52.234;7.444;2022-07-03T00:04:03;2.05;;;1.48;;
31660;SDS011;18267;52.234;7.444;2022-07-03T00:06:30;5.05;;;1.38;;
31660;SDS011;18267;52.234;7.444;2022-07-03T00:08:57;2.60;;;1.00;;
31660;SDS011;18267;52.234;7.444;2022-07-03T00:11:23;2.85;;;1.40;;
31660;SDS011;18267;52.234;7.444;2022-07-03T00:13:50;4.63;;;1.58;;
31660;SDS011;18267;52.234;7.444;2022-07-03T00:16:15;1.67;;;1.25;;
31660;SDS011;18267;52.234;7.444;2022-07-03T00:18:42;0.80;;;0.80;;
31660;SDS011;18267;52.234;7.444;2022-07-03T00:21:09;4.47;;;1.48;;
31660;SDS011;18267;52.234;7.444;2022-07-03T00:23:38;1.58;;;1.48;;
31660;SDS011;18267;52.234;7.444;2022-07-03T00:26:09;4.13;;;1.48;;
31660;SDS011;18267;52.234;7.444;2022-07-03T00:28:37;3.15;;;1.27;;
31660;SDS011;18267;52.234;7.444;2022-07-03T00:31:03;2.97;;;1.55;;
31660;SDS011;18267;52.234;7.444;2022-07-03T00:33:30;1.58;;;1.23;;
31660;SDS011;18267;52.234;7.444;2022-07-03T00:35:59;6.90;;;1.20;;
31660;SDS011;18267;52.234;7.444;2022-07-03T00:38:25;2.10;;;1.48;;
31660;SDS011;18267;52.234;7.444;2022-07-03T00:40:52;1.85;;;1.55;;
31660;SDS011;18267;52.234;7.444;2022-07-03T00:43:18;1.75;;;1.40;;
31660;SDS011;18267;52.234;7.444;2022-07-03T00:45:46;1.38;;;1.27;;
31660;SDS011;18267;52.234;7.444;2022-07-03T00:48:14;3.03;;;1.30;;
31660;SDS011;18267;52.234;7.444;2022-07-03T00:50:44;1.95;;;1.20;;
31660;SDS011;18267;52.234;7.444;2022-07-03T00:53:12;4.13;;;1.42;;
31660;SDS011;18267;52.234;7.444;2022-07-03T00:55:39;3.42;;;1.58;;
31660;SDS011;18267;52.234;7.444;2022-07-03T00:58:06;6.45;;;1.50;;
31660;SDS011;18267;52.234;7.444;2022-07-03T01:00:33;2.72;;;1.38;;
31660;SDS011;18267;52.234;7.444;2022-07-03T01:03:08;4.90;;;1.75;;
31660;SDS011;18267;52.234;7.444;2022-07-03T01:05:49;2.90;;;2.05;;
31660;SDS011;18267;52.234;7.444;2022-07-03T01:08:28;3.53;;;1.60;;
31660;SDS011;18267;52.234;7.444;2022-07-03T01:21:46;4.57;;;1.60;;
31660;SDS011;18267;52.234;7.444;2022-07-03T01:24:37;4.22;;;1.70;;
31660;SDS011;18267;52.234;7.444;2022-07-03T01:27:10;7.38;;;1.85;;
31660;SDS011;18267;52.234;7.444;2022-07-03T01:29:52;3.42;;;1.77;;
31660;SDS011;18267;52.234;7.444;2022-07-03T01:32:28;4.70;;;1.70;;
31660;SDS011;18267;52.234;7.444;2022-07-03T01:34:57;4.10;;;1.88;;
31660;SDS011;18267;52.234;7.444;2022-07-03T01:37:27;5.25;;;2.00;;
31660;SDS011;18267;52.234;7.444;2022-07-03T01:39:54;2.47;;;2.17;;
31660;SDS011;18267;52.234;7.444;2022-07-03T01:42:23;4.30;;;1.90;;
31660;SDS011;18267;52.234;7.444;2022-07-03T01:44:49;2.60;;;2.05;;
31660;SDS011;18267;52.234;7.444;2022-07-03T01:47:18;5.00;;;1.63;;
31660;SDS011;18267;52.234;7.444;2022-07-03T01:49:44;1.70;;;1.60;;
31660;SDS011;18267;52.234;7.444;2022-07-03T01:52:10;2.90;;;1.60;;
31660;SDS011;18267;52.234;7.444;2022-07-03T01:54:37;4.07;;;1.73;;
31660;SDS011;18267;52.234;7.444;2022-07-03T01:57:05;1.92;;;1.75;;
31660;SDS011;18267;52.234;7.444;2022-07-03T01:59:31;2.22;;;1.70;;
31660;SDS011;18267;52.234;7.444;2022-07-03T02:04:58;3.50;;;1.65;;
31660;SDS011;18267;52.234;7.444;2022-07-03T02:10:08;2.65;;;1.50;;
31660;SDS011;18267;52.234;7.444;2022-07-03T02:12:48;2.25;;;1.40;;
31660;SDS011;18267;52.234;7.444;2022-07-03T02:15:17;1.77;;;1.55;;
31660;SDS011;18267;52.234;7.444;2022-07-03T02:17:46;2.05;;;1.63;;
31660;SDS011;18267;52.234;7.444;2022-07-03T02:20:16;3.70;;;1.73;;
31660;SDS011;18267;52.234;7.444;2022-07-03T02:25:39;3.10;;;1.90;;
31660;SDS011;18267;52.234;7.444;2022-07-03T02:28:13;2.85;;;1.70;;
31660;SDS011;18267;52.234;7.444;2022-07-03T02:30:55;4.40;;;1.95;;
31660;SDS011;18267;52.234;7.444;2022-07-03T02:33:24;2.47;;;1.50;;
31660;SDS011;18267;52.234;7.444;2022-07-03T02:35:52;2.75;;;2.25;;
31660;SDS011;18267;52.234;7.444;2022-07-03T02:38:20;3.88;;;2.30;;
31660;SDS011;18267;52.234;7.444;2022-07-03T02:40:50;3.92;;;2.40;;
31660;SDS011;18267;52.234;7.444;2022-07-03T02:43:49;2.53;;;2.33;;
31660;SDS011;18267;52.234;7.444;2022-07-03T02:46:18;4.40;;;2.30;;
31660;SDS011;18267;52.234;7.444;2022-07-03T02:52:02;2.15;;;1.95;;
31660;SDS011;18267;52.234;7.444;2022-07-03T02:54:46;2.53;;;2.20;;
31660;SDS011;18267;52.234;7.444;2022-07-03T02:57:13;3.60;;;2.03;;
31660;SDS011;18267;52.234;7.444;2022-07-03T03:02:38;2.58;;;2.38;;
31660;SDS011;18267;52.234;7.444;2022-07-03T03:07:52;3.35;;;2.72;;
31660;SDS011;18267;52.234;7.444;2022-07-03T03:10:44;5.53;;;2.33;;
31660;SDS011;18267;52.234;7.444;2022-07-03T03:13:12;2.80;;;2.50;;
31660;SDS011;18267;52.234;7.444;2022-07-03T03:15:44;5.38;;;2.70;;
31660;SDS011;18267;52.234;7.444;2022-07-03T03:18:33;2.75;;;2.55;;
31660;SDS011;18267;52.234;7.444;2022-07-03T03:21:04;5.93;;;2.40;;
31660;SDS011;18267;52.234;7.444;2022-07-03T03:23:49;3.05;;;2.58;;
31660;SDS011;18267;52.234;7.444;2022-07-03T03:26:20;6.32;;;2.25;;
31660;SDS011;18267;52.234;7.444;2022-07-03T03:28:48;3.72;;;2.40;;
31660;SDS011;18267;52.234;7.444;2022-07-03T03:31:15;3.60;;;2.47;;
31660;SDS011;18267;52.234;7.444;2022-07-03T03:33:44;2.45;;;2.25;;
31660;SDS011;18267;52.234;7.444;2022-07-03T03:36:12;4.18;;;2.45;;
31660;SDS011;18267;52.234;7.444;2022-07-03T03:38:40;3.15;;;2.20;;
31660;SDS011;18267;52.234;7.444;2022-07-03T03:41:06;2.95;;;2.60;;
31660;SDS011;18267;52.234;7.444;2022-07-03T03:43:32;5.47;;;2.30;;
31660;SDS011;18267;52.234;7.444;2022-07-03T03:45:59;4.40;;;2.47;;
31660;SDS011;18267;52.234;7.444;2022-07-03T03:48:28;4.32;;;2.25;;
31660;SDS011;18267;52.234;7.444;2022-07-03T03:50:56;3.00;;;2.33;;
31660;SDS011;18267;52.234;7.444;2022-07-03T03:53:22;3.88;;;2.25;;
31660;SDS011;18267;52.234;7.444;2022-07-03T03:55:58;4.47;;;2.20;;
31660;SDS011;18267;52.234;7.444;2022-07-03T03:58:28;3.85;;;2.03;;
31660;SDS011;18267;52.234;7.444;2022-07-03T04:00:56;2.25;;;2.05;;
31660;SDS011;18267;52.234;7.444;2022-07-03T04:03:23;3.30;;;2.38;;
31660;SDS011;18267;52.234;7.444;2022-07-03T04:05:49;7.30;;;2.58;;
31660;SDS011;18267;52.234;7.444;2022-07-03T04:08:15;5.68;;;2.20;;
31660;SDS011;18267;52.234;7.444;2022-07-03T04:10:40;6.78;;;2.42;;
31660;SDS011;18267;52.234;7.444;2022-07-03T04:13:06;13.27;;;3.22;;
31660;SDS011;18267;52.234;7.444;2022-07-03T04:15:31;12.15;;;3.00;;
31660;SDS011;18267;52.234;7.444;2022-07-03T04:17:57;4.70;;;3.30;;
31660;SDS011;18267;52.234;7.444;2022-07-03T04:20:23;2.80;;;2.60;;
31660;SDS011;18267;52.234;7.444;2022-07-03T04:22:49;3.35;;;3.00;;
31660;SDS011;18267;52.234;7.444;2022-07-03T04:25:15;3.00;;;2.67;;
31660;SDS011;18267;52.234;7.444;2022-07-03T04:27:42;6.88;;;2.75;;
31660;SDS011;18267;52.234;7.444;2022-07-03T04:30:07;3.80;;;3.05;;
31660;SDS011;18267;52.234;7.444;2022-07-03T04:32:35;5.47;;;2.67;;
31660;SDS011;18267;52.234;7.444;2022-07-03T04:35:01;4.38;;;3.13;;
31660;SDS011;18267;52.234;7.444;2022-07-03T04:37:27;5.88;;;2.75;;
31660;SDS011;18267;52.234;7.444;2022-07-03T04:39:53;2.63;;;2.20;;
31660;SDS011;18267;52.234;7.444;2022-07-03T04:42:18;4.65;;;3.15;;
31660;SDS011;18267;52.234;7.444;2022-07-03T04:44:44;3.58;;;2.55;;
31660;SDS011;18267;52.234;7.444;2022-07-03T04:47:09;2.38;;;2.17;;
31660;SDS011;18267;52.234;7.444;2022-07-03T04:49:35;4.13;;;2.95;;
31660;SDS011;18267;52.234;7.444;2022-07-03T04:52:00;5.75;;;2.63;;
31660;SDS011;18267;52.234;7.444;2022-07-03T04:54:26;2.60;;;2.40;;
31660;SDS011;18267;52.234;7.444;2022-07-03T04:56:51;4.10;;;2.97;;
31660;SDS011;18267;52.234;7.444;2022-07-03T04:59:17;6.55;;;2.83;;
31660;SDS011;18267;52.234;7.444;2022-07-03T05:01:42;4.88;;;2.75;;
31660;SDS011;18267;52.234;7.444;2022-07-03T05:04:08;2.67;;;2.47;;
31660;SDS011;18267;52.234;7.444;2022-07-03T05:06:34;3.05;;;2.50;;
31660;SDS011;18267;52.234;7.444;2022-07-03T05:08:59;3.50;;;2.75;;
31660;SDS011;18267;52.234;7.444;2022-07-03T05:11:25;6.45;;;3.10;;
31660;SDS011;18267;52.234;7.444;2022-07-03T05:13:50;4.75;;;3.00;;
31660;SDS011;18267;52.234;7.444;2022-07-03T05:16:16;9.07;;;2.78;;
31660;SDS011;18267;52.234;7.444;2022-07-03T05:18:41;7.55;;;3.13;;
31660;SDS011;18267;52.234;7.444;2022-07-03T05:21:07;3.35;;;2.95;;
31660;SDS011;18267;52.234;7.444;2022-07-03T05:23:32;4.00;;;3.45;;
31660;SDS011;18267;52.234;7.444;2022-07-03T05:25:58;11.23;;;3.42;;
31660;SDS011;18267;52.234;7.444;2022-07-03T05:28:24;3.17;;;2.97;;
31660;SDS011;18267;52.234;7.444;2022-07-03T05:30:50;3.40;;;2.80;;
31660;SDS011;18267;52.234;7.444;2022-07-03T05:33:15;6.50;;;2.92;;
31660;SDS011;18267;52.234;7.444;2022-07-03T05:35:41;6.15;;;3.30;;
31660;SDS011;18267;52.234;7.444;2022-07-03T05:38:06;6.40;;;3.15;;
31660;SDS011;18267;52.234;7.444;2022-07-03T05:40:32;4.03;;;3.05;;
31660;SDS011;18267;52.234;7.444;2022-07-03T05:42:57;4.55;;;3.15;;
31660;SDS011;18267;52.234;7.444;2022-07-03T05:45:23;6.75;;;3.25;;
31660;SDS011;18267;52.234;7.444;2022-07-03T05:47:48;5.22;;;3.08;;
31660;SDS011;18267;52.234;7.444;2022-07-03T05:50:14;3.20;;;2.90;;
31660;SDS011;18267;52.234;7.444;2022-07-03T05:52:40;7.40;;;3.15;;
31660;SDS011;18267;52.234;7.444;2022-07-03T05:55:05;6.32;;;2.15;;
31660;SDS011;18267;52.234;7.444;2022-07-03T05:57:31;5.30;;;2.25;;
31660;SDS011;18267;52.234;7.444;2022-07-03T05:59:57;8.60;;;2.72;;
31660;SDS011;18267;52.234;7.444;2022-07-03T06:02:22;6.10;;;2.25;;
31660;SDS011;18267;52.234;7.444;2022-07-03T06:04:48;4.22;;;2.30;;
31660;SDS011;18267;52.234;7.444;2022-07-03T06:07:13;3.70;;;2.40;;
31660;SDS011;18267;52.234;7.444;2022-07-03T06:09:41;4.15;;;2.80;;
31660;SDS011;18267;52.234;7.444;2022-07-03T06:12:08;7.10;;;3.22;;
31660;SDS011;18267;52.234;7.444;2022-07-03T06:14:34;2.97;;;2.60;;
31660;SDS011;18267;52.234;7.444;2022-07-03T06:16:59;3.25;;;2.70;;
31660;SDS011;18267;52.234;7.444;2022-07-03T06:19:25;3.55;;;2.70;;
31660;SDS011;18267;52.234;7.444;2022-07-03T06:21:50;3.33;;;2.92;;
31660;SDS011;18267;52.234;7.444;2022-07-03T06:24:16;7.72;;;2.90;;
31660;SDS011;18267;52.234;7.444;2022-07-03T06:26:42;3.58;;;2.60;;
31660;SDS011;18267;52.234;7.444;2022-07-03T06:29:07;4.32;;;2.67;;
31660;SDS011;18267;52.234;7.444;2022-07-03T06:31:33;10.40;;;2.90;;
31660;SDS011;18267;52.234;7.444;2022-07-03T06:33:58;2.83;;;2.63;;
31660;SDS011;18267;52.234;7.444;2022-07-03T06:36:24;4.80;;;2.55;;
31660;SDS011;18267;52.234;7.444;2022-07-03T06:38:53;6.38;;;2.22;;
31660;SDS011;18267;52.234;7.444;2022-07-03T06:41:19;3.05;;;2.42;;
31660;SDS011;18267;52.234;7.444;2022-07-03T06:43:44;6.22;;;2.65;;
31660;SDS011;18267;52.234;7.444;2022-07-03T06:46:10;4.72;;;2.60;;
31660;SDS011;18267;52.234;7.444;2022-07-03T06:48:35;5.00;;;2.45;;
31660;SDS011;18267;52.234;7.444;2022-07-03T06:51:01;3.70;;;2.05;;
31660;SDS011;18267;52.234;7.444;2022-07-03T06:53:26;2.30;;;1.95;;
31660;SDS011;18267;52.234;7.444;2022-07-03T06:55:52;3.55;;;2.33;;
31660;SDS011;18267;52.234;7.444;2022-07-03T06:58:17;2.92;;;1.90;;
31660;SDS011;18267;52.234;7.444;2022-07-03T07:00:43;3.65;;;2.03;;
31660;SDS011;18267;52.234;7.444;2022-07-03T07:03:08;4.90;;;2.28;;
31660;SDS011;18267;52.234;7.444;2022-07-03T07:05:40;2.13;;;1.70;;
31660;SDS011;18267;52.234;7.444;2022-07-03T07:08:05;3.33;;;1.65;;
31660;SDS011;18267;52.234;7.444;2022-07-03T07:10:31;2.15;;;1.95;;
31660;SDS011;18267;52.234;7.444;2022-07-03T07:12:56;1.42;;;1.33;;
31660;SDS011;18267;52.234;7.444;2022-07-03T07:15:22;2.85;;;1.45;;
31660;SDS011;18267;52.234;7.444;2022-07-03T07:17:48;1.40;;;1.25;;
31660;SDS011;18267;52.234;7.444;2022-07-03T07:20:13;1.55;;;1.20;;
31660;SDS011;18267;52.234;7.444;2022-07-03T07:22:39;1.77;;;1.50;;
31660;SDS011;18267;52.234;7.444;2022-07-03T07:25:04;3.20;;;1.67;;
31660;SDS011;18267;52.234;7.444;2022-07-03T07:27:30;2.83;;;1.40;;
31660;SDS011;18267;52.234;7.444;2022-07-03T07:29:55;2.08;;;1.20;;
31660;SDS011;18267;52.234;7.444;2022-07-03T07:32:21;6.18;;;1.20;;
31660;SDS011;18267;52.234;7.444;2022-07-03T07:34:47;1.50;;;1.00;;
31660;SDS011;18267;52.234;7.444;2022-07-03T07:37:12;2.50;;;1.27;;
31660;SDS011;18267;52.234;7.444;2022-07-03T07:39:38;1.20;;;1.10;;
31660;SDS011;18267;52.234;7.444;2022-07-03T07:42:03;3.70;;;1.30;;
31660;SDS011;18267;52.234;7.444;2022-07-03T07:44:29;3.40;;;1.48;;
31660;SDS011;18267;52.234;7.444;2022-07-03T07:46:54;2.15;;;1.17;;
31660;SDS011;18267;52.234;7.444;2022-07-03T07:49:20;1.80;;;0.98;;
31660;SDS011;18267;52.234;7.444;2022-07-03T07:51:46;4.15;;;1.17;;
31660;SDS011;18267;52.234;7.444;2022-07-03T07:54:11;2.33;;;0.93;;
31660;SDS011;18267;52.234;7.444;2022-07-03T07:56:37;1.70;;;1.00;;
31660;SDS011;18267;52.234;7.444;2022-07-03T07:59:02;1.10;;;1.00;;
31660;SDS011;18267;52.234;7.444;2022-07-03T08:01:28;1.63;;;1.10;;
31660;SDS011;18267;52.234;7.444;2022-07-03T08:04:12;1.80;;;0.95;;
31660;SDS011;18267;52.234;7.444;2022-07-03T08:06:56;1.90;;;0.98;;
31660;SDS011;18267;52.234;7.444;2022-07-03T08:09:22;3.38;;;1.15;;
31660;SDS011;18267;52.234;7.444;2022-07-03T08:11:47;5.88;;;1.00;;
31660;SDS011;18267;52.234;7.444;2022-07-03T08:14:13;6.63;;;1.20;;
31660;SDS011;18267;52.234;7.444;2022-07-03T08:16:38;4.55;;;1.02;;
31660;SDS011;18267;52.234;7.444;2022-07-03T08:19:04;5.20;;;1.10;;
31660;SDS011;18267;52.234;7.444;2022-07-03T08:21:30;1.13;;;0.70;;
31660;SDS011;18267;52.234;7.444;2022-07-03T08:23:56;2.53;;;1.20;;
31660;SDS011;18267;52.234;7.444;2022-07-03T08:26:22;1.92;;;1.10;;
31660;SDS011;18267;52.234;7.444;2022-07-03T08:28:48;2.33;;;0.80;;
31660;SDS011;18267;52.234;7.444;2022-07-03T08:31:13;2.40;;;1.02;;
31660;SDS011;18267;52.234;7.444;2022-07-03T08:33:39;1.75;;;0.90;;
31660;SDS011;18267;52.234;7.444;2022-07-03T08:36:04;1.95;;;0.98;;
31660;SDS011;18267;52.234;7.444;2022-07-03T08:38:31;1.80;;;1.10;;
31660;SDS011;18267;52.234;7.444;2022-07-03T08:40:59;3.20;;;1.10;;
31660;SDS011;18267;52.234;7.444;2022-07-03T08:43:25;1.45;;;1.08;;
31660;SDS011;18267;52.234;7.444;2022-07-03T08:45:52;1.45;;;1.10;;
31660;SDS011;18267;52.234;7.444;2022-07-03T08:48:19;3.22;;;0.77;;
31660;SDS011;18267;52.234;7.444;2022-07-03T08:50:46;2.20;;;0.93;;
31660;SDS011;18267;52.234;7.444;2022-07-03T08:53:13;2.25;;;0.85;;
31660;SDS011;18267;52.234;7.444;2022-07-03T08:55:40;1.50;;;0.65;;
31660;SDS011;18267;52.234;7.444;2022-07-03T08:58:05;3.78;;;0.77;;
31660;SDS011;18267;52.234;7.444;2022-07-03T09:00:37;4.28;;;0.80;;
31660;SDS011;18267;52.234;7.444;2022-07-03T09:03:03;1.02;;;0.60;;
31660;SDS011;18267;52.234;7.444;2022-07-03T09:05:34;3.35;;;0.80;;
31660;SDS011;18267;52.234;7.444;2022-07-03T09:08:00;2.35;;;1.27;;
31660;SDS011;18267;52.234;7.444;2022-07-03T09:10:27;2.33;;;0.70;;
31660;SDS011;18267;52.234;7.444;2022-07-03T09:12:53;2.08;;;0.70;;
31660;SDS011;18267;52.234;7.444;2022-07-03T09:15:20;1.17;;;0.70;;
31660;SDS011;18267;52.234;7.444;2022-07-03T09:17:59;1.35;;;0.65;;
31660;SDS011;18267;52.234;7.444;2022-07-03T09:20:43;3.10;;;0.85;;
31660;SDS011;18267;52.234;7.444;2022-07-03T09:23:13;1.40;;;0.80;;
31660;SDS011;18267;52.234;7.444;2022-07-03T09:26:00;3.67;;;0.60;;
31660;SDS011;18267;52.234;7.444;2022-07-03T09:31:12;2.22;;;0.70;;
31660;SDS011;18267;52.234;7.444;2022-07-03T09:36:36;4.85;;;1.13;;
31660;SDS011;18267;52.234;7.444;2022-07-03T09:39:20;4.03;;;0.70;;
31660;SDS011;18267;52.234;7.444;2022-07-03T09:44:28;6.63;;;1.02;;
31660;SDS011;18267;52.234;7.444;2022-07-03T09:49:46;1.30;;;0.68;;
31660;SDS011;18267;52.234;7.444;2022-07-03T09:57:38;4.18;;;1.27;;
31660;SDS011;18267;52.234;7.444;2022-07-03T10:05:20;4.70;;;0.95;;
31660;SDS011;18267;52.234;7.444;2022-07-03T10:07:50;1.58;;;0.90;;
31660;SDS011;18267;52.234;7.444;2022-07-03T10:10:18;3.90;;;1.10;;
31660;SDS011;18267;52.234;7.444;2022-07-03T10:12:45;3.13;;;1.00;;
31660;SDS011;18267;52.234;7.444;2022-07-03T10:15:12;5.10;;;1.08;;
31660;SDS011;18267;52.234;7.444;2022-07-03T10:17:40;2.15;;;0.85;;
31660;SDS011;18267;52.234;7.444;2022-07-03T10:20:07;1.48;;;1.00;;
31660;SDS011;18267;52.234;7.444;2022-07-03T10:22:37;2.45;;;0.90;;
31660;SDS011;18267;52.234;7.444;2022-07-03T10:25:05;2.47;;;0.68;;
31660;SDS011;18267;52.234;7.444;2022-07-03T10:27:31;5.35;;;0.95;;
31660;SDS011;18267;52.234;7.444;2022-07-03T10:29:57;4.38;;;0.82;;
31660;SDS011;18267;52.234;7.444;2022-07-03T10:32:24;2.90;;;0.85;;
31660;SDS011;18267;52.234;7.444;2022-07-03T10:34:51;3.42;;;0.80;;
31660;SDS011;18267;52.234;7.444;2022-07-03T10:37:17;3.95;;;1.73;;
31660;SDS011;18267;52.234;7.444;2022-07-03T10:39:57;2.90;;;0.60;;
31660;SDS011;18267;52.234;7.444;2022-07-03T10:43:02;1.45;;;0.75;;
31660;SDS011;18267;52.234;7.444;2022-07-03T10:46:08;1.60;;;0.77;;
31660;SDS011;18267;52.234;7.444;2022-07-03T10:48:50;2.65;;;1.40;;
31660;SDS011;18267;52.234;7.444;2022-07-03T10:51:18;1.45;;;0.88;;
31660;SDS011;18267;52.234;7.444;2022-07-03T10:53:44;3.65;;;0.85;;
31660;SDS011;18267;52.234;7.444;2022-07-03T10:56:10;1.75;;;0.65;;
31660;SDS011;18267;52.234;7.444;2022-07-03T11:01:30;3.75;;;1.38;;
31660;SDS011;18267;52.234;7.444;2022-07-03T11:03:58;2.08;;;1.20;;
31660;SDS011;18267;52.234;7.444;2022-07-03T11:09:14;1.40;;;0.90;;
31660;SDS011;18267;52.234;7.444;2022-07-03T11:11:44;1.02;;;0.60;;
31660;SDS011;18267;52.234;7.444;2022-07-03T11:14:24;0.80;;;0.80;;
31660;SDS011;18267;52.234;7.444;2022-07-03T11:19:42;0.82;;;0.70;;
31660;SDS011;18267;52.234;7.444;2022-07-03T11:22:09;1.05;;;0.70;;
31660;SDS011;18267;52.234;7.444;2022-07-03T11:24:44;1.60;;;0.70;;
31660;SDS011;18267;52.234;7.444;2022-07-03T11:27:23;2.25;;;0.70;;
31660;SDS011;18267;52.234;7.444;2022-07-03T11:29:50;2.60;;;0.95;;
31660;SDS011;18267;52.234;7.444;2022-07-03T11:35:59;2.13;;;1.15;;
31660;SDS011;18267;52.234;7.444;2022-07-03T11:38:20;1.70;;;0.68;;
31660;SDS011;18267;52.234;7.444;2022-07-03T11:40:50;3.70;;;0.95;;
31660;SDS011;18267;52.234;7.444;2022-07-03T11:43:17;7.60;;;1.00;;
31660;SDS011;18267;52.234;7.444;2022-07-03T11:45:43;2.30;;;1.02;;
31660;SDS011;18267;52.234;7.444;2022-07-03T11:48:17;1.65;;;0.90;;
31660;SDS011;18267;52.234;7.444;2022-07-03T11:50:45;4.40;;;1.33;;
31660;SDS011;18267;52.234;7.444;2022-07-03T11:53:29;2.85;;;1.10;;
31660;SDS011;18267;52.234;7.444;2022-07-03T11:56:05;1.00;;;0.70;;
31660;SDS011;18267;52.234;7.444;2022-07-03T11:58:54;2.53;;;1.10;;
31660;SDS011;18267;52.234;7.444;2022-07-03T12:03:48;3.53;;;1.02;;
31660;SDS011;18267;52.234;7.444;2022-07-03T12:06:14;3.22;;;0.70;;
31660;SDS011;18267;52.234;7.444;2022-07-03T12:08:40;2.15;;;0.98;;
31660;SDS011;18267;52.234;7.444;2022-07-03T12:11:11;1.95;;;0.73;;
31660;SDS011;18267;52.234;7.444;2022-07-03T12:13:41;1.95;;;0.57;;
31660;SDS011;18267;52.234;7.444;2022-07-03T12:16:11;1.30;;;0.80;;
31660;SDS011;18267;52.234;7.444;2022-07-03T12:21:11;2.45;;;0.90;;
31660;SDS011;18267;52.234;7.444;2022-07-03T12:23:44;1.00;;;0.70;;
31660;SDS011;18267;52.234;7.444;2022-07-03T12:26:14;2.17;;;0.88;;
31660;SDS011;18267;52.234;7.444;2022-07-03T12:28:52;3.08;;;0.70;;
31660;SDS011;18267;52.234;7.444;2022-07-03T12:31:18;1.90;;;0.70;;
31660;SDS011;18267;52.234;7.444;2022-07-03T12:33:44;1.80;;;0.63;;
31660;SDS011;18267;52.234;7.444;2022-07-03T12:36:11;3.08;;;0.95;;
31660;SDS011;18267;52.234;7.444;2022-07-03T12:38:38;2.45;;;0.70;;
31660;SDS011;18267;52.234;7.444;2022-07-03T12:41:05;3.35;;;1.00;;
31660;SDS011;18267;52.234;7.444;2022-07-03T12:43:41;2.28;;;0.88;;
31660;SDS011;18267;52.234;7.444;2022-07-03T12:48:46;2.45;;;0.60;;
31660;SDS011;18267;52.234;7.444;2022-07-03T12:51:12;4.85;;;0.90;;
31660;SDS011;18267;52.234;7.444;2022-07-03T12:53:38;2.55;;;0.60;;
31660;SDS011;18267;52.234;7.444;2022-07-03T12:56:04;4.22;;;0.60;;
31660;SDS011;18267;52.234;7.444;2022-07-03T12:58:33;1.15;;;0.50;;
31660;SDS011;18267;52.234;7.444;2022-07-03T13:01:32;2.10;;;0.65;;
31660;SDS011;18267;52.234;7.444;2022-07-03T13:03:59;1.38;;;0.52;;
31660;SDS011;18267;52.234;7.444;2022-07-03T13:06:25;4.18;;;0.80;;
31660;SDS011;18267;52.234;7.444;2022-07-03T13:08:55;1.77;;;0.70;;
31660;SDS011;18267;52.234;7.444;2022-07-03T13:11:33;3.03;;;0.50;;
31660;SDS011;18267;52.234;7.444;2022-07-03T13:14:07;0.80;;;0.55;;
31660;SDS011;18267;52.234;7.444;2022-07-03T13:16:35;4.35;;;0.80;;
31660;SDS011;18267;52.234;7.444;2022-07-03T13:19:09;2.40;;;0.80;;
31660;SDS011;18267;52.234;7.444;2022-07-03T13:21:36;1.08;;;0.50;;
31660;SDS011;18267;52.234;7.444;2022-07-03T13:24:03;1.38;;;0.47;;
31660;SDS011;18267;52.234;7.444;2022-07-03T13:26:29;0.88;;;0.40;;
31660;SDS011;18267;52.234;7.444;2022-07-03T13:28:55;2.92;;;0.40;;
31660;SDS011;18267;52.234;7.444;2022-07-03T13:31:21;8.27;;;0.95;;
31660;SDS011;18267;52.234;7.444;2022-07-03T13:33:47;0.43;;;0.40;;
31660;SDS011;18267;52.234;7.444;2022-07-03T13:36:12;0.20;;;0.20;;
31660;SDS011;18267;52.234;7.444;2022-07-03T13:38:38;2.05;;;0.73;;
31660;SDS011;18267;52.234;7.444;2022-07-03T13:41:03;0.52;;;0.22;;
31660;SDS011;18267;52.234;7.444;2022-07-03T13:43:29;0.52;;;0.30;;
31660;SDS011;18267;52.234;7.444;2022-07-03T13:45:54;1.00;;;0.50;;
31660;SDS011;18267;52.234;7.444;2022-07-03T13:48:20;1.42;;;0.22;;
31660;SDS011;18267;52.234;7.444;2022-07-03T13:50:46;1.98;;;0.40;;
31660;SDS011;18267;52.234;7.444;2022-07-03T13:53:12;1.85;;;0.30;;
31660;SDS011;18267;52.234;7.444;2022-07-03T13:55:38;1.17;;;0.40;;
31660;SDS011;18267;52.234;7.444;2022-07-03T13:58:05;1.17;;;0.50;;
31660;SDS011;18267;52.234;7.444;2022-07-03T14:00:32;2.60;;;0.47;;
31660;SDS011;18267;52.234;7.444;2022-07-03T14:02:59;3.90;;;0.45;;
31660;SDS011;18267;52.234;7.444;2022-07-03T14:05:24;5.30;;;0.50;;
31660;SDS011;18267;52.234;7.444;2022-07-03T14:07:50;1.33;;;0.40;;
31660;SDS011;18267;52.234;7.444;2022-07-03T14:10:16;0.70;;;0.55;;
31660;SDS011;18267;52.234;7.444;2022-07-03T14:12:41;0.80;;;0.40;;
31660;SDS011;18267;52.234;7.444;2022-07-03T14:15:07;1.50;;;0.30;;
31660;SDS011;18267;52.234;7.444;2022-07-03T14:17:33;0.40;;;0.32;;
31660;SDS011;18267;52.234;7.444;2022-07-03T14:19:59;2.55;;;0.70;;
31660;SDS011;18267;52.234;7.444;2022-07-03T14:22:24;2.63;;;0.40;;
31660;SDS011;18267;52.234;7.444;2022-07-03T14:24:50;1.00;;;0.40;;
31660;SDS011;18267;52.234;7.444;2022-07-03T14:27:15;6.38;;;0.50;;
31660;SDS011;18267;52.234;7.444;2022-07-03T14:30:00;1.20;;;0.60;;
31660;SDS011;18267;52.234;7.444;2022-07-03T14:32:44;0.70;;;0.40;;
31660;SDS011;18267;52.234;7.444;2022-07-03T14:35:09;1.27;;;0.40;;
31660;SDS011;18267;52.234;7.444;2022-07-03T14:37:35;0.43;;;0.43;;
31660;SDS011;18267;52.234;7.444;2022-07-03T14:40:00;3.75;;;0.40;;
31660;SDS011;18267;52.234;7.444;2022-07-03T14:42:26;2.72;;;0.50;;
31660;SDS011;18267;52.234;7.444;2022-07-03T14:44:51;2.60;;;0.60;;
31660;SDS011;18267;52.234;7.444;2022-07-03T14:47:17;0.93;;;0.40;;
31660;SDS011;18267;52.234;7.444;2022-07-03T14:49:43;0.32;;;0.30;;
31660;SDS011;18267;52.234;7.444;2022-07-03T14:52:09;4.68;;;0.55;;
31660;SDS011;18267;52.234;7.444;2022-07-03T14:54:35;1.13;;;0.47;;
31660;SDS011;18267;52.234;7.444;2022-07-03T14:57:02;0.80;;;0.30;;
31660;SDS011;18267;52.234;7.444;2022-07-03T15:02:10;0.77;;;0.35;;
31660;SDS011;18267;52.234;7.444;2022-07-03T15:07:37;3.15;;;0.35;;
31660;SDS011;18267;52.234;7.444;2022-07-03T15:10:05;2.45;;;0.40;;
31660;SDS011;18267;52.234;7.444;2022-07-03T15:12:32;3.72;;;0.50;;
31660;SDS011;18267;52.234;7.444;2022-07-03T15:15:00;2.67;;;0.60;;
31660;SDS011;18267;52.234;7.444;2022-07-03T15:17:27;3.10;;;0.45;;
31660;SDS011;18267;52.234;7.444;2022-07-03T15:19:53;0.93;;;0.30;;
31660;SDS011;18267;52.234;7.444;2022-07-03T15:22:21;1.45;;;0.43;;
31660;SDS011;18267;52.234;7.444;2022-07-03T15:24:48;1.85;;;0.40;;
31660;SDS011;18267;52.234;7.444;2022-07-03T15:27:19;1.27;;;0.40;;
31660;SDS011;18267;52.234;7.444;2022-07-03T15:29:47;0.85;;;0.47;;
31660;SDS011;18267;52.234;7.444;2022-07-03T15:32:14;0.65;;;0.57;;
31660;SDS011;18267;52.234;7.444;2022-07-03T15:34:41;0.60;;;0.30;;
31660;SDS011;18267;52.234;7.444;2022-07-03T15:40:04;4.35;;;0.43;;
31660;SDS011;18267;52.234;7.444;2022-07-03T15:45:23;1.27;;;0.43;;
31660;SDS011;18267;52.234;7.444;2022-07-03T15:50:28;1.13;;;0.35;;
31660;SDS011;18267;52.234;7.444;2022-07-03T15:53:10;1.83;;;0.40;;
31660;SDS011;18267;52.234;7.444;2022-07-03T15:55:41;0.63;;;0.30;;
31660;SDS011;18267;52.234;7.444;2022-07-03T15:58:09;0.63;;;0.40;;
31660;SDS011;18267;52.234;7.444;2022-07-03T16:00:38;0.75;;;0.40;;
31660;SDS011;18267;52.234;7.444;2022-07-03T16:03:24;0.52;;;0.40;;
31660;SDS011;18267;52.234;7.444;2022-07-03T16:05:56;2.15;;;0.40;;
31660;SDS011;18267;52.234;7.444;2022-07-03T16:08:27;1.08;;;0.65;;
31660;SDS011;18267;52.234;7.444;2022-07-03T16:10:54;2.63;;;0.57;;
31660;SDS011;18267;52.234;7.444;2022-07-03T16:13:24;1.15;;;0.40;;
31660;SDS011;18267;52.234;7.444;2022-07-03T16:15:51;0.52;;;0.43;;
31660;SDS011;18267;52.234;7.444;2022-07-03T16:18:17;1.88;;;0.30;;
31660;SDS011;18267;52.234;7.444;2022-07-03T16:20:44;2.95;;;0.43;;